sensor_id;sensor_type;location;lat;lon;timestamp;P1;durP1;ratioP1;P2;durP2;ratioP2
9160;SDS011;4615;51.340;8.288;2022-07-23T00:01:36;15.67;;;13.87;;
9160;SDS011;4615;51.340;8.288;2022-07-23T00:04:03;17.73;;;14.27;;
9160;SDS011;4615;51.340;8.288;2022-07-23T00:06:29;17.80;;;15.87;;
9160;SDS011;4615;51.340;8.288;2022-07-23T00:08:56;19.00;;;15.53;;
9160;SDS011;4615;51.340;8.288;2022-07-23T00:11:24;17.47;;;14.00;;
9160;SDS011;4615;51.340;8.288;2022-07-23T00:13:50;17.00;;;13.27;;
9160;SDS011;4615;51.340;8.288;2022-07-23T00:16:18;17.10;;;13.23;;
9160;SDS011;4615;51.340;8.288;2022-07-23T00:18:45;18.13;;;14.33;;
9160;SDS011;4615;51.340;8.288;2022-07-23T00:21:11;19.10;;;13.63;;
9160;SDS011;4615;51.340;8.288;2022-07-23T00:23:37;18.27;;;14.10;;
9160;SDS011;4615;51.340;8.288;2022-07-23T00:26:04;17.57;;;14.07;;
9160;SDS011;4615;51.340;8.288;2022-07-23T00:28:34;17.30;;;14.13;;
9160;SDS011;4615;51.340;8.288;2022-07-23T00:31:00;16.13;;;13.50;;
9160;SDS011;4615;51.340;8.288;2022-07-23T00:33:27;16.10;;;13.70;;
9160;SDS011;4615;51.340;8.288;2022-07-23T00:35:53;20.43;;;15.17;;
9160;SDS011;4615;51.340;8.288;2022-07-23T00:38:19;17.73;;;15.63;;
9160;SDS011;4615;51.340;8.288;2022-07-23T00:40:46;17.40;;;14.57;;
9160;SDS011;4615;51.340;8.288;2022-07-23T00:43:12;18.33;;;15.17;;
9160;SDS011;4615;51.340;8.288;2022-07-23T00:45:40;17.80;;;14.60;;
9160;SDS011;4615;51.340;8.288;2022-07-23T00:48:07;18.37;;;14.90;;
9160;SDS011;4615;51.340;8.288;2022-07-23T00:50:33;17.10;;;14.30;;
9160;SDS011;4615;51.340;8.288;2022-07-23T00:52:59;18.23;;;14.53;;
9160;SDS011;4615;51.340;8.288;2022-07-23T00:55:26;18.57;;;14.83;;
9160;SDS011;4615;51.340;8.288;2022-07-23T00:57:52;16.57;;;13.83;;
9160;SDS011;4615;51.340;8.288;2022-07-23T01:00:19;17.10;;;14.67;;
9160;SDS011;4615;51.340;8.288;2022-07-23T01:02:47;16.53;;;13.87;;
9160;SDS011;4615;51.340;8.288;2022-07-23T01:05:13;16.63;;;14.17;;
9160;SDS011;4615;51.340;8.288;2022-07-23T01:07:40;17.73;;;14.57;;
9160;SDS011;4615;51.340;8.288;2022-07-23T01:10:06;16.37;;;14.53;;
9160;SDS011;4615;51.340;8.288;2022-07-23T01:12:53;20.10;;;15.27;;
9160;SDS011;4615;51.340;8.288;2022-07-23T01:15:20;16.93;;;14.90;;
9160;SDS011;4615;51.340;8.288;2022-07-23T01:17:48;21.03;;;16.27;;
9160;SDS011;4615;51.340;8.288;2022-07-23T01:20:14;19.53;;;15.13;;
9160;SDS011;4615;51.340;8.288;2022-07-23T01:22:42;20.97;;;15.70;;
9160;SDS011;4615;51.340;8.288;2022-07-23T01:25:08;19.70;;;15.27;;
9160;SDS011;4615;51.340;8.288;2022-07-23T01:27:35;22.60;;;16.07;;
9160;SDS011;4615;51.340;8.288;2022-07-23T01:30:02;19.97;;;15.17;;
9160;SDS011;4615;51.340;8.288;2022-07-23T01:32:29;17.90;;;15.70;;
9160;SDS011;4615;51.340;8.288;2022-07-23T01:34:55;19.90;;;15.77;;
9160;SDS011;4615;51.340;8.288;2022-07-23T01:37:21;20.53;;;15.50;;
9160;SDS011;4615;51.340;8.288;2022-07-23T01:39:49;17.70;;;14.60;;
9160;SDS011;4615;51.340;8.288;2022-07-23T01:42:16;23.57;;;16.53;;
9160;SDS011;4615;51.340;8.288;2022-07-23T01:44:42;18.73;;;15.50;;
9160;SDS011;4615;51.340;8.288;2022-07-23T01:47:08;18.57;;;15.67;;
9160;SDS011;4615;51.340;8.288;2022-07-23T01:49:35;20.97;;;16.77;;
9160;SDS011;4615;51.340;8.288;2022-07-23T01:52:02;20.60;;;16.53;;
9160;SDS011;4615;51.340;8.288;2022-07-23T01:54:32;21.63;;;17.20;;
9160;SDS011;4615;51.340;8.288;2022-07-23T01:57:00;23.63;;;17.80;;
9160;SDS011;4615;51.340;8.288;2022-07-23T01:59:26;24.40;;;18.07;;
9160;SDS011;4615;51.340;8.288;2022-07-23T02:01:53;22.97;;;18.27;;
9160;SDS011;4615;51.340;8.288;2022-07-23T02:04:20;20.73;;;17.73;;
9160;SDS011;4615;51.340;8.288;2022-07-23T02:06:47;18.77;;;16.27;;
9160;SDS011;4615;51.340;8.288;2022-07-23T02:09:13;18.97;;;16.10;;
9160;SDS011;4615;51.340;8.288;2022-07-23T02:11:39;19.03;;;15.47;;
9160;SDS011;4615;51.340;8.288;2022-07-23T02:14:07;22.53;;;16.57;;
9160;SDS011;4615;51.340;8.288;2022-07-23T02:16:34;21.73;;;17.67;;
9160;SDS011;4615;51.340;8.288;2022-07-23T02:19:00;18.37;;;16.37;;
9160;SDS011;4615;51.340;8.288;2022-07-23T02:21:27;20.87;;;17.50;;
9160;SDS011;4615;51.340;8.288;2022-07-23T02:23:53;24.50;;;17.20;;
9160;SDS011;4615;51.340;8.288;2022-07-23T02:26:19;22.73;;;17.37;;
9160;SDS011;4615;51.340;8.288;2022-07-23T02:28:46;24.20;;;18.93;;
9160;SDS011;4615;51.340;8.288;2022-07-23T02:31:14;20.47;;;17.03;;
9160;SDS011;4615;51.340;8.288;2022-07-23T02:33:40;24.93;;;18.23;;
9160;SDS011;4615;51.340;8.288;2022-07-23T02:36:07;23.47;;;18.43;;
9160;SDS011;4615;51.340;8.288;2022-07-23T02:38:33;23.87;;;17.87;;
9160;SDS011;4615;51.340;8.288;2022-07-23T02:40:59;21.47;;;17.37;;
9160;SDS011;4615;51.340;8.288;2022-07-23T02:43:26;22.90;;;18.53;;
9160;SDS011;4615;51.340;8.288;2022-07-23T02:45:52;22.43;;;18.43;;
9160;SDS011;4615;51.340;8.288;2022-07-23T02:48:20;22.80;;;17.43;;
9160;SDS011;4615;51.340;8.288;2022-07-23T02:50:46;22.73;;;18.13;;
9160;SDS011;4615;51.340;8.288;2022-07-23T02:53:13;23.17;;;17.20;;
9160;SDS011;4615;51.340;8.288;2022-07-23T02:55:39;25.77;;;18.63;;
9160;SDS011;4615;51.340;8.288;2022-07-23T02:58:06;22.50;;;17.47;;
9160;SDS011;4615;51.340;8.288;2022-07-23T03:00:32;22.27;;;18.07;;
9160;SDS011;4615;51.340;8.288;2022-07-23T03:02:58;21.63;;;18.57;;
9160;SDS011;4615;51.340;8.288;2022-07-23T03:05:26;19.50;;;16.67;;
9160;SDS011;4615;51.340;8.288;2022-07-23T03:07:53;24.50;;;18.07;;
9160;SDS011;4615;51.340;8.288;2022-07-23T03:10:19;21.63;;;18.43;;
9160;SDS011;4615;51.340;8.288;2022-07-23T03:12:46;23.53;;;18.23;;
9160;SDS011;4615;51.340;8.288;2022-07-23T03:15:12;23.00;;;19.03;;
9160;SDS011;4615;51.340;8.288;2022-07-23T03:17:38;24.40;;;18.60;;
9160;SDS011;4615;51.340;8.288;2022-07-23T03:20:05;23.30;;;18.73;;
9160;SDS011;4615;51.340;8.288;2022-07-23T03:22:33;25.33;;;18.57;;
9160;SDS011;4615;51.340;8.288;2022-07-23T03:25:00;26.20;;;18.80;;
9160;SDS011;4615;51.340;8.288;2022-07-23T03:27:27;24.73;;;18.43;;
9160;SDS011;4615;51.340;8.288;2022-07-23T03:29:54;23.73;;;19.13;;
9160;SDS011;4615;51.340;8.288;2022-07-23T03:32:21;21.03;;;17.50;;
9160;SDS011;4615;51.340;8.288;2022-07-23T03:34:47;22.27;;;17.77;;
9160;SDS011;4615;51.340;8.288;2022-07-23T03:37:13;22.27;;;17.57;;
9160;SDS011;4615;51.340;8.288;2022-07-23T03:39:41;24.10;;;18.77;;
9160;SDS011;4615;51.340;8.288;2022-07-23T03:42:08;23.70;;;18.77;;
9160;SDS011;4615;51.340;8.288;2022-07-23T03:44:34;25.10;;;19.30;;
9160;SDS011;4615;51.340;8.288;2022-07-23T03:47:01;23.30;;;18.20;;
9160;SDS011;4615;51.340;8.288;2022-07-23T03:49:28;23.00;;;18.50;;
9160;SDS011;4615;51.340;8.288;2022-07-23T03:51:54;23.77;;;19.43;;
9160;SDS011;4615;51.340;8.288;2022-07-23T03:54:21;22.50;;;19.00;;
9160;SDS011;4615;51.340;8.288;2022-07-23T03:56:48;24.40;;;19.47;;
9160;SDS011;4615;51.340;8.288;2022-07-23T03:59:15;24.83;;;19.70;;
9160;SDS011;4615;51.340;8.288;2022-07-23T04:01:41;27.27;;;21.03;;
9160;SDS011;4615;51.340;8.288;2022-07-23T04:04:08;26.00;;;20.20;;
9160;SDS011;4615;51.340;8.288;2022-07-23T04:06:34;26.73;;;21.07;;
9160;SDS011;4615;51.340;8.288;2022-07-23T04:09:00;27.87;;;21.60;;
9160;SDS011;4615;51.340;8.288;2022-07-23T04:11:27;27.90;;;20.97;;
9160;SDS011;4615;51.340;8.288;2022-07-23T04:13:55;26.00;;;21.20;;
9160;SDS011;4615;51.340;8.288;2022-07-23T04:16:21;28.53;;;21.27;;
9160;SDS011;4615;51.340;8.288;2022-07-23T04:18:47;27.60;;;21.10;;
9160;SDS011;4615;51.340;8.288;2022-07-23T04:21:14;24.27;;;20.23;;
9160;SDS011;4615;51.340;8.288;2022-07-23T04:23:40;24.73;;;19.57;;
9160;SDS011;4615;51.340;8.288;2022-07-23T04:26:07;23.93;;;18.50;;
9160;SDS011;4615;51.340;8.288;2022-07-23T04:28:33;22.77;;;19.70;;
9160;SDS011;4615;51.340;8.288;2022-07-23T04:31:01;24.07;;;18.60;;
9160;SDS011;4615;51.340;8.288;2022-07-23T04:33:27;22.50;;;19.03;;
9160;SDS011;4615;51.340;8.288;2022-07-23T04:35:54;24.57;;;19.47;;
9160;SDS011;4615;51.340;8.288;2022-07-23T04:38:20;21.90;;;18.27;;
9160;SDS011;4615;51.340;8.288;2022-07-23T04:40:46;23.20;;;18.47;;
9160;SDS011;4615;51.340;8.288;2022-07-23T04:43:13;28.20;;;18.30;;
9160;SDS011;4615;51.340;8.288;2022-07-23T04:45:39;24.40;;;18.83;;
9160;SDS011;4615;51.340;8.288;2022-07-23T04:48:07;25.93;;;18.63;;
9160;SDS011;4615;51.340;8.288;2022-07-23T04:50:33;24.10;;;19.10;;
9160;SDS011;4615;51.340;8.288;2022-07-23T04:53:00;24.67;;;18.43;;
9160;SDS011;4615;51.340;8.288;2022-07-23T04:55:27;24.97;;;18.57;;
9160;SDS011;4615;51.340;8.288;2022-07-23T04:57:53;21.13;;;16.30;;
9160;SDS011;4615;51.340;8.288;2022-07-23T05:00:20;18.90;;;16.20;;
9160;SDS011;4615;51.340;8.288;2022-07-23T05:02:46;21.93;;;16.40;;
9160;SDS011;4615;51.340;8.288;2022-07-23T05:05:14;21.90;;;17.77;;
9160;SDS011;4615;51.340;8.288;2022-07-23T05:07:40;19.37;;;17.20;;
9160;SDS011;4615;51.340;8.288;2022-07-23T05:10:07;22.70;;;18.53;;
9160;SDS011;4615;51.340;8.288;2022-07-23T05:12:33;23.83;;;18.80;;
9160;SDS011;4615;51.340;8.288;2022-07-23T05:15:00;21.27;;;17.70;;
9160;SDS011;4615;51.340;8.288;2022-07-23T05:17:26;19.63;;;17.40;;
9160;SDS011;4615;51.340;8.288;2022-07-23T05:19:53;21.40;;;17.20;;
9160;SDS011;4615;51.340;8.288;2022-07-23T05:22:21;25.07;;;18.17;;
9160;SDS011;4615;51.340;8.288;2022-07-23T05:24:47;25.77;;;18.10;;
9160;SDS011;4615;51.340;8.288;2022-07-23T05:27:13;21.70;;;17.70;;
9160;SDS011;4615;51.340;8.288;2022-07-23T05:29:40;19.60;;;17.03;;
9160;SDS011;4615;51.340;8.288;2022-07-23T05:32:06;20.07;;;16.20;;
9160;SDS011;4615;51.340;8.288;2022-07-23T05:34:33;19.37;;;16.43;;
9160;SDS011;4615;51.340;8.288;2022-07-23T05:36:59;20.93;;;16.77;;
9160;SDS011;4615;51.340;8.288;2022-07-23T05:39:27;20.20;;;17.60;;
9160;SDS011;4615;51.340;8.288;2022-07-23T05:41:53;21.83;;;19.10;;
9160;SDS011;4615;51.340;8.288;2022-07-23T05:44:20;25.33;;;19.30;;
9160;SDS011;4615;51.340;8.288;2022-07-23T05:46:47;25.43;;;18.63;;
9160;SDS011;4615;51.340;8.288;2022-07-23T05:49:13;20.10;;;17.53;;
9160;SDS011;4615;51.340;8.288;2022-07-23T05:51:40;22.83;;;18.40;;
9160;SDS011;4615;51.340;8.288;2022-07-23T05:54:06;22.07;;;17.30;;
9160;SDS011;4615;51.340;8.288;2022-07-23T05:56:34;20.03;;;17.10;;
9160;SDS011;4615;51.340;8.288;2022-07-23T05:59:00;22.07;;;18.17;;
9160;SDS011;4615;51.340;8.288;2022-07-23T06:01:27;22.53;;;18.57;;
9160;SDS011;4615;51.340;8.288;2022-07-23T06:03:53;21.77;;;17.93;;
9160;SDS011;4615;51.340;8.288;2022-07-23T06:06:20;21.23;;;17.63;;
9160;SDS011;4615;51.340;8.288;2022-07-23T06:08:46;23.13;;;18.67;;
9160;SDS011;4615;51.340;8.288;2022-07-23T06:11:12;20.90;;;17.30;;
9160;SDS011;4615;51.340;8.288;2022-07-23T06:13:40;22.20;;;17.70;;
9160;SDS011;4615;51.340;8.288;2022-07-23T06:16:07;19.50;;;17.37;;
9160;SDS011;4615;51.340;8.288;2022-07-23T06:18:33;21.20;;;16.97;;
9160;SDS011;4615;51.340;8.288;2022-07-23T06:21:00;19.03;;;15.97;;
9160;SDS011;4615;51.340;8.288;2022-07-23T06:23:26;19.10;;;15.70;;
9160;SDS011;4615;51.340;8.288;2022-07-23T06:25:52;16.83;;;14.93;;
9160;SDS011;4615;51.340;8.288;2022-07-23T06:28:19;19.40;;;16.13;;
9160;SDS011;4615;51.340;8.288;2022-07-23T06:30:47;20.07;;;16.03;;
9160;SDS011;4615;51.340;8.288;2022-07-23T06:33:13;18.47;;;14.83;;
9160;SDS011;4615;51.340;8.288;2022-07-23T06:35:39;17.80;;;15.73;;
9160;SDS011;4615;51.340;8.288;2022-07-23T06:38:06;19.67;;;15.60;;
9160;SDS011;4615;51.340;8.288;2022-07-23T06:40:32;17.60;;;15.03;;
9160;SDS011;4615;51.340;8.288;2022-07-23T06:42:59;18.47;;;15.40;;
9160;SDS011;4615;51.340;8.288;2022-07-23T06:45:25;19.30;;;14.83;;
9160;SDS011;4615;51.340;8.288;2022-07-23T06:47:53;16.50;;;14.53;;
9160;SDS011;4615;51.340;8.288;2022-07-23T06:50:20;19.27;;;14.03;;
9160;SDS011;4615;51.340;8.288;2022-07-23T06:52:46;16.73;;;14.93;;
9160;SDS011;4615;51.340;8.288;2022-07-23T06:55:12;17.37;;;13.83;;
9160;SDS011;4615;51.340;8.288;2022-07-23T06:57:42;15.73;;;13.90;;
9160;SDS011;4615;51.340;8.288;2022-07-23T07:00:09;16.27;;;13.97;;
9160;SDS011;4615;51.340;8.288;2022-07-23T07:02:35;15.13;;;13.03;;
9160;SDS011;4615;51.340;8.288;2022-07-23T07:05:04;13.37;;;11.00;;
9160;SDS011;4615;51.340;8.288;2022-07-23T07:07:30;12.97;;;11.67;;
9160;SDS011;4615;51.340;8.288;2022-07-23T07:09:56;11.27;;;9.90;;
9160;SDS011;4615;51.340;8.288;2022-07-23T07:12:23;12.37;;;11.00;;
9160;SDS011;4615;51.340;8.288;2022-07-23T07:14:49;12.13;;;10.83;;
9160;SDS011;4615;51.340;8.288;2022-07-23T07:17:16;9.80;;;8.90;;
9160;SDS011;4615;51.340;8.288;2022-07-23T07:19:42;11.27;;;8.77;;
9160;SDS011;4615;51.340;8.288;2022-07-23T07:22:10;11.20;;;9.10;;
9160;SDS011;4615;51.340;8.288;2022-07-23T07:24:36;11.43;;;9.40;;
9160;SDS011;4615;51.340;8.288;2022-07-23T07:27:03;9.83;;;8.83;;
9160;SDS011;4615;51.340;8.288;2022-07-23T07:29:29;9.63;;;8.40;;
9160;SDS011;4615;51.340;8.288;2022-07-23T07:31:56;8.20;;;7.27;;
9160;SDS011;4615;51.340;8.288;2022-07-23T07:34:22;10.37;;;8.57;;
9160;SDS011;4615;51.340;8.288;2022-07-23T07:36:48;8.67;;;7.50;;
9160;SDS011;4615;51.340;8.288;2022-07-23T07:39:17;9.73;;;8.13;;
9160;SDS011;4615;51.340;8.288;2022-07-23T07:41:43;9.20;;;7.90;;
9160;SDS011;4615;51.340;8.288;2022-07-23T07:44:09;10.53;;;7.80;;
9160;SDS011;4615;51.340;8.288;2022-07-23T07:46:36;10.60;;;7.97;;
9160;SDS011;4615;51.340;8.288;2022-07-23T07:49:02;10.07;;;8.30;;
9160;SDS011;4615;51.340;8.288;2022-07-23T07:51:29;8.90;;;7.93;;
9160;SDS011;4615;51.340;8.288;2022-07-23T07:53:55;9.40;;;8.37;;
9160;SDS011;4615;51.340;8.288;2022-07-23T07:56:23;10.13;;;8.17;;
9160;SDS011;4615;51.340;8.288;2022-07-23T07:58:49;8.20;;;7.47;;
9160;SDS011;4615;51.340;8.288;2022-07-23T08:01:16;9.33;;;7.33;;
9160;SDS011;4615;51.340;8.288;2022-07-23T08:03:44;8.93;;;8.03;;
9160;SDS011;4615;51.340;8.288;2022-07-23T08:06:10;9.00;;;8.10;;
9160;SDS011;4615;51.340;8.288;2022-07-23T08:08:37;9.13;;;8.13;;
9160;SDS011;4615;51.340;8.288;2022-07-23T08:11:03;9.63;;;7.87;;
9160;SDS011;4615;51.340;8.288;2022-07-23T08:13:31;9.23;;;7.10;;
9160;SDS011;4615;51.340;8.288;2022-07-23T08:15:58;8.77;;;6.57;;
9160;SDS011;4615;51.340;8.288;2022-07-23T08:18:24;7.33;;;6.63;;
9160;SDS011;4615;51.340;8.288;2022-07-23T08:20:51;6.13;;;5.60;;
9160;SDS011;4615;51.340;8.288;2022-07-23T08:23:17;7.83;;;5.80;;
9160;SDS011;4615;51.340;8.288;2022-07-23T08:25:45;6.33;;;5.57;;
9160;SDS011;4615;51.340;8.288;2022-07-23T08:28:12;6.80;;;5.73;;
9160;SDS011;4615;51.340;8.288;2022-07-23T08:30:41;6.07;;;5.57;;
9160;SDS011;4615;51.340;8.288;2022-07-23T08:33:08;6.03;;;5.27;;
9160;SDS011;4615;51.340;8.288;2022-07-23T08:35:36;4.83;;;4.40;;
9160;SDS011;4615;51.340;8.288;2022-07-23T08:38:04;9.00;;;5.63;;
9160;SDS011;4615;51.340;8.288;2022-07-23T08:40:31;7.20;;;5.30;;
9160;SDS011;4615;51.340;8.288;2022-07-23T08:42:58;7.37;;;5.20;;
9160;SDS011;4615;51.340;8.288;2022-07-23T08:45:25;6.07;;;5.40;;
9160;SDS011;4615;51.340;8.288;2022-07-23T08:47:54;6.20;;;5.23;;
9160;SDS011;4615;51.340;8.288;2022-07-23T08:50:21;6.53;;;4.83;;
9160;SDS011;4615;51.340;8.288;2022-07-23T08:52:48;8.70;;;5.50;;
9160;SDS011;4615;51.340;8.288;2022-07-23T08:55:16;6.17;;;5.00;;
9160;SDS011;4615;51.340;8.288;2022-07-23T08:57:42;7.10;;;5.17;;
9160;SDS011;4615;51.340;8.288;2022-07-23T09:00:09;7.13;;;5.07;;
9160;SDS011;4615;51.340;8.288;2022-07-23T09:02:38;7.70;;;5.00;;
9160;SDS011;4615;51.340;8.288;2022-07-23T09:05:06;5.07;;;4.57;;
9160;SDS011;4615;51.340;8.288;2022-07-23T09:07:32;6.47;;;5.27;;
9160;SDS011;4615;51.340;8.288;2022-07-23T09:10:06;6.63;;;5.63;;
9160;SDS011;4615;51.340;8.288;2022-07-23T09:12:33;7.83;;;5.60;;
9160;SDS011;4615;51.340;8.288;2022-07-23T09:15:03;6.03;;;5.40;;
9160;SDS011;4615;51.340;8.288;2022-07-23T09:17:29;6.30;;;4.87;;
9160;SDS011;4615;51.340;8.288;2022-07-23T09:20:08;5.97;;;5.00;;
9160;SDS011;4615;51.340;8.288;2022-07-23T09:22:35;5.87;;;5.23;;
9160;SDS011;4615;51.340;8.288;2022-07-23T09:25:02;8.13;;;4.83;;
9160;SDS011;4615;51.340;8.288;2022-07-23T09:27:44;6.87;;;5.50;;
9160;SDS011;4615;51.340;8.288;2022-07-23T09:30:11;7.70;;;5.37;;
9160;SDS011;4615;51.340;8.288;2022-07-23T09:32:38;6.80;;;5.73;;
9160;SDS011;4615;51.340;8.288;2022-07-23T09:35:07;6.43;;;5.43;;
9160;SDS011;4615;51.340;8.288;2022-07-23T09:37:34;7.47;;;5.47;;
9160;SDS011;4615;51.340;8.288;2022-07-23T09:40:03;5.93;;;5.17;;
9160;SDS011;4615;51.340;8.288;2022-07-23T09:42:30;5.77;;;4.97;;
9160;SDS011;4615;51.340;8.288;2022-07-23T09:44:56;7.97;;;5.20;;
9160;SDS011;4615;51.340;8.288;2022-07-23T09:47:24;6.87;;;5.90;;
9160;SDS011;4615;51.340;8.288;2022-07-23T09:50:00;5.60;;;5.10;;
9160;SDS011;4615;51.340;8.288;2022-07-23T09:52:28;6.73;;;5.10;;
9160;SDS011;4615;51.340;8.288;2022-07-23T09:54:58;5.83;;;4.77;;
9160;SDS011;4615;51.340;8.288;2022-07-23T09:57:25;5.90;;;5.40;;
9160;SDS011;4615;51.340;8.288;2022-07-23T09:59:52;5.67;;;5.17;;
9160;SDS011;4615;51.340;8.288;2022-07-23T10:02:18;5.93;;;5.20;;
9160;SDS011;4615;51.340;8.288;2022-07-23T10:04:46;6.80;;;6.20;;
9160;SDS011;4615;51.340;8.288;2022-07-23T10:07:12;8.27;;;6.37;;
9160;SDS011;4615;51.340;8.288;2022-07-23T10:09:41;6.23;;;5.73;;
9160;SDS011;4615;51.340;8.288;2022-07-23T10:12:09;7.30;;;6.40;;
9160;SDS011;4615;51.340;8.288;2022-07-23T10:14:43;6.13;;;5.63;;
9160;SDS011;4615;51.340;8.288;2022-07-23T10:17:09;7.03;;;6.33;;
9160;SDS011;4615;51.340;8.288;2022-07-23T10:19:36;6.20;;;5.60;;
9160;SDS011;4615;51.340;8.288;2022-07-23T10:22:06;5.80;;;5.30;;
9160;SDS011;4615;51.340;8.288;2022-07-23T10:24:39;6.77;;;6.03;;
9160;SDS011;4615;51.340;8.288;2022-07-23T10:27:15;6.10;;;5.33;;
9160;SDS011;4615;51.340;8.288;2022-07-23T10:29:45;5.93;;;5.20;;
9160;SDS011;4615;51.340;8.288;2022-07-23T10:32:18;6.00;;;5.47;;
9160;SDS011;4615;51.340;8.288;2022-07-23T10:34:49;6.57;;;5.80;;
9160;SDS011;4615;51.340;8.288;2022-07-23T10:37:20;6.57;;;6.00;;
9160;SDS011;4615;51.340;8.288;2022-07-23T10:39:50;6.27;;;5.43;;
9160;SDS011;4615;51.340;8.288;2022-07-23T10:42:35;6.67;;;5.30;;
9160;SDS011;4615;51.340;8.288;2022-07-23T10:45:03;6.27;;;5.20;;
9160;SDS011;4615;51.340;8.288;2022-07-23T10:47:48;8.10;;;6.20;;
9160;SDS011;4615;51.340;8.288;2022-07-23T10:50:19;7.50;;;6.17;;
9160;SDS011;4615;51.340;8.288;2022-07-23T10:55:44;6.80;;;6.10;;
9160;SDS011;4615;51.340;8.288;2022-07-23T10:58:17;6.77;;;6.17;;
9160;SDS011;4615;51.340;8.288;2022-07-23T11:00:44;8.80;;;6.37;;
9160;SDS011;4615;51.340;8.288;2022-07-23T11:05:51;7.23;;;6.40;;
9160;SDS011;4615;51.340;8.288;2022-07-23T11:08:18;6.80;;;6.13;;
9160;SDS011;4615;51.340;8.288;2022-07-23T11:10:47;7.27;;;6.57;;
9160;SDS011;4615;51.340;8.288;2022-07-23T11:13:28;8.57;;;7.27;;
9160;SDS011;4615;51.340;8.288;2022-07-23T11:18:56;7.33;;;6.63;;
9160;SDS011;4615;51.340;8.288;2022-07-23T11:24:05;8.00;;;7.20;;
9160;SDS011;4615;51.340;8.288;2022-07-23T11:26:45;7.20;;;6.50;;
9160;SDS011;4615;51.340;8.288;2022-07-23T11:32:03;7.63;;;6.88;;
9160;SDS011;4615;51.340;8.288;2022-07-23T11:34:30;8.52;;;7.35;;
9160;SDS011;4615;51.340;8.288;2022-07-23T11:36:57;7.00;;;6.32;;
9160;SDS011;4615;51.340;8.288;2022-07-23T11:39:24;7.57;;;5.87;;
9160;SDS011;4615;51.340;8.288;2022-07-23T11:41:51;7.53;;;6.77;;
9160;SDS011;4615;51.340;8.288;2022-07-23T11:44:24;7.47;;;6.73;;
9160;SDS011;4615;51.340;8.288;2022-07-23T11:46:54;6.97;;;5.97;;
9160;SDS011;4615;51.340;8.288;2022-07-23T11:49:23;9.32;;;5.63;;
9160;SDS011;4615;51.340;8.288;2022-07-23T11:52:01;8.02;;;5.60;;
9160;SDS011;4615;51.340;8.288;2022-07-23T11:54:28;7.10;;;5.78;;
9160;SDS011;4615;51.340;8.288;2022-07-23T11:56:55;5.68;;;5.18;;
9160;SDS011;4615;51.340;8.288;2022-07-23T11:59:21;6.78;;;6.13;;
9160;SDS011;4615;51.340;8.288;2022-07-23T12:01:58;7.57;;;5.88;;
9160;SDS011;4615;51.340;8.288;2022-07-23T12:04:28;6.03;;;5.50;;
9160;SDS011;4615;51.340;8.288;2022-07-23T12:07:02;5.95;;;5.35;;
9160;SDS011;4615;51.340;8.288;2022-07-23T12:09:29;7.22;;;5.78;;
9160;SDS011;4615;51.340;8.288;2022-07-23T12:11:58;5.80;;;5.30;;
9160;SDS011;4615;51.340;8.288;2022-07-23T12:14:25;6.28;;;5.13;;
9160;SDS011;4615;51.340;8.288;2022-07-23T12:17:06;7.18;;;5.15;;
9160;SDS011;4615;51.340;8.288;2022-07-23T12:19:34;5.78;;;5.28;;
9160;SDS011;4615;51.340;8.288;2022-07-23T12:22:01;6.68;;;5.40;;
9160;SDS011;4615;51.340;8.288;2022-07-23T12:24:28;5.88;;;5.28;;
9160;SDS011;4615;51.340;8.288;2022-07-23T12:27:09;6.72;;;6.10;;
9160;SDS011;4615;51.340;8.288;2022-07-23T12:29:36;7.38;;;6.50;;
9160;SDS011;4615;51.340;8.288;2022-07-23T12:32:03;6.82;;;6.18;;
9160;SDS011;4615;51.340;8.288;2022-07-23T12:34:42;6.95;;;6.25;;
9160;SDS011;4615;51.340;8.288;2022-07-23T12:39:50;8.32;;;7.55;;
9160;SDS011;4615;51.340;8.288;2022-07-23T12:42:16;7.88;;;7.20;;
9160;SDS011;4615;51.340;8.288;2022-07-23T12:47:24;8.15;;;7.45;;
9160;SDS011;4615;51.340;8.288;2022-07-23T12:49:51;8.32;;;7.53;;
9160;SDS011;4615;51.340;8.288;2022-07-23T12:52:18;9.23;;;8.45;;
9160;SDS011;4615;51.340;8.288;2022-07-23T12:54:44;8.55;;;7.75;;
9160;SDS011;4615;51.340;8.288;2022-07-23T12:57:11;8.50;;;7.78;;
9160;SDS011;4615;51.340;8.288;2022-07-23T12:59:37;8.38;;;7.57;;
9160;SDS011;4615;51.340;8.288;2022-07-23T13:02:03;8.00;;;7.30;;
9160;SDS011;4615;51.340;8.288;2022-07-23T13:04:30;8.43;;;7.63;;
9160;SDS011;4615;51.340;8.288;2022-07-23T13:07:00;8.73;;;7.97;;
9160;SDS011;4615;51.340;8.288;2022-07-23T13:09:27;7.65;;;7.05;;
9160;SDS011;4615;51.340;8.288;2022-07-23T13:11:54;8.75;;;7.82;;
9160;SDS011;4615;51.340;8.288;2022-07-23T13:14:21;9.77;;;8.93;;
9160;SDS011;4615;51.340;8.288;2022-07-23T13:16:48;10.18;;;9.23;;
9160;SDS011;4615;51.340;8.288;2022-07-23T13:19:15;9.93;;;9.02;;
9160;SDS011;4615;51.340;8.288;2022-07-23T13:21:41;8.38;;;7.65;;
9160;SDS011;4615;51.340;8.288;2022-07-23T13:24:09;9.30;;;8.60;;
9160;SDS011;4615;51.340;8.288;2022-07-23T13:26:37;11.40;;;10.35;;
9160;SDS011;4615;51.340;8.288;2022-07-23T13:29:04;7.70;;;7.10;;
9160;SDS011;4615;51.340;8.288;2022-07-23T13:31:30;10.75;;;9.75;;
9160;SDS011;4615;51.340;8.288;2022-07-23T13:33:57;9.55;;;8.55;;
9160;SDS011;4615;51.340;8.288;2022-07-23T13:36:23;8.40;;;7.60;;
9160;SDS011;4615;51.340;8.288;2022-07-23T13:38:49;9.15;;;8.35;;
9160;SDS011;4615;51.340;8.288;2022-07-23T13:41:18;10.68;;;9.23;;
9160;SDS011;4615;51.340;8.288;2022-07-23T13:43:44;9.75;;;8.85;;
9160;SDS011;4615;51.340;8.288;2022-07-23T13:46:11;9.52;;;8.65;;
9160;SDS011;4615;51.340;8.288;2022-07-23T13:48:37;9.73;;;8.93;;
9160;SDS011;4615;51.340;8.288;2022-07-23T13:51:04;8.32;;;7.53;;
9160;SDS011;4615;51.340;8.288;2022-07-23T13:53:30;6.82;;;6.22;;
9160;SDS011;4615;51.340;8.288;2022-07-23T13:55:56;6.93;;;6.32;;
9160;SDS011;4615;51.340;8.288;2022-07-23T13:58:24;7.00;;;6.05;;
9160;SDS011;4615;51.340;8.288;2022-07-23T14:00:52;6.93;;;5.80;;
9160;SDS011;4615;51.340;8.288;2022-07-23T14:03:20;5.80;;;5.25;;
9160;SDS011;4615;51.340;8.288;2022-07-23T14:05:47;5.13;;;4.72;;
9160;SDS011;4615;51.340;8.288;2022-07-23T14:08:14;5.65;;;5.15;;
9160;SDS011;4615;51.340;8.288;2022-07-23T14:10:40;4.70;;;4.00;;
9160;SDS011;4615;51.340;8.288;2022-07-23T14:13:07;4.70;;;4.30;;
9160;SDS011;4615;51.340;8.288;2022-07-23T14:15:34;5.45;;;4.75;;
9160;SDS011;4615;51.340;8.288;2022-07-23T14:18:02;5.40;;;4.93;;
9160;SDS011;4615;51.340;8.288;2022-07-23T14:20:28;6.03;;;5.53;;
9160;SDS011;4615;51.340;8.288;2022-07-23T14:22:54;6.30;;;5.70;;
9160;SDS011;4615;51.340;8.288;2022-07-23T14:25:23;6.00;;;5.40;;
9160;SDS011;4615;51.340;8.288;2022-07-23T14:27:49;5.47;;;4.97;;
9160;SDS011;4615;51.340;8.288;2022-07-23T14:30:15;4.68;;;4.00;;
9160;SDS011;4615;51.340;8.288;2022-07-23T14:32:43;4.20;;;3.90;;
9160;SDS011;4615;51.340;8.288;2022-07-23T14:35:10;4.50;;;4.10;;
9160;SDS011;4615;51.340;8.288;2022-07-23T14:37:36;4.43;;;4.03;;
9160;SDS011;4615;51.340;8.288;2022-07-23T14:40:05;4.93;;;4.47;;
9160;SDS011;4615;51.340;8.288;2022-07-23T14:42:31;4.63;;;4.13;;
9160;SDS011;4615;51.340;8.288;2022-07-23T14:44:58;5.07;;;4.50;;
9160;SDS011;4615;51.340;8.288;2022-07-23T14:47:24;4.88;;;4.38;;
9160;SDS011;4615;51.340;8.288;2022-07-23T14:49:52;4.63;;;4.22;;
9160;SDS011;4615;51.340;8.288;2022-07-23T14:52:19;5.43;;;4.13;;
9160;SDS011;4615;51.340;8.288;2022-07-23T14:54:45;4.78;;;4.10;;
9160;SDS011;4615;51.340;8.288;2022-07-23T14:57:12;6.43;;;4.15;;
9160;SDS011;4615;51.340;8.288;2022-07-23T14:59:39;4.32;;;3.40;;
9160;SDS011;4615;51.340;8.288;2022-07-23T15:02:07;4.20;;;3.90;;
9160;SDS011;4615;51.340;8.288;2022-07-23T15:04:33;4.32;;;3.92;;
9160;SDS011;4615;51.340;8.288;2022-07-23T15:07:01;5.63;;;3.83;;
9160;SDS011;4615;51.340;8.288;2022-07-23T15:09:27;3.97;;;3.60;;
9160;SDS011;4615;51.340;8.288;2022-07-23T15:11:54;3.63;;;3.33;;
9160;SDS011;4615;51.340;8.288;2022-07-23T15:14:20;4.03;;;3.63;;
9160;SDS011;4615;51.340;8.288;2022-07-23T15:16:47;3.65;;;3.40;;
9160;SDS011;4615;51.340;8.288;2022-07-23T15:19:14;4.50;;;3.33;;
9160;SDS011;4615;51.340;8.288;2022-07-23T15:21:40;5.47;;;3.40;;